Time;durP1;ratioP1;P1;durP2;ratioP2;P2;SDS_P1;SDS_P2;PMS_P1;PMS_P2;Temp;Humidity;BMP_temperature;BMP_pressure;BME280_temperature;BME280_humidity;BME280_pressure;Samples;Min_cycle;Max_cycle;Signal;HPM_P1;HPM_P2
2022/08/11 00:01:26;;;;;;;7.93;3.80;;;14.70;99.90;;;;;;4972526;28;20551;-84
2022/08/11 00:04:01;;;;;;;6.78;3.42;;;14.70;99.90;;;;;;4970275;28;20223;-83
2022/08/11 00:06:35;;;;;;;6.97;3.15;;;14.70;99.90;;;;;;4972179;28;20230;-85
2022/08/11 00:09:10;;;;;;;6.80;3.33;;;14.80;99.90;;;;;;4971861;28;20219;-85
2022/08/11 00:11:46;;;;;;;5.95;3.05;;;14.80;99.90;;;;;;4970391;28;20667;-85
2022/08/11 00:14:20;;;;;;;9.88;3.25;;;14.90;99.90;;;;;;4961839;28;20757;-85
2022/08/11 00:17:02;;;;;;;6.20;2.65;;;14.90;99.90;;;;;;4970593;28;20190;-85
2022/08/11 00:19:40;;;;;;;7.28;2.80;;;14.90;99.90;;;;;;4969482;28;20203;-86
2022/08/11 00:22:12;;;;;;;5.40;3.38;;;14.90;99.90;;;;;;4956627;28;20202;-86
2022/08/11 00:24:46;;;;;;;5.43;2.90;;;15.00;99.90;;;;;;4971817;28;20223;-86
2022/08/11 00:27:17;;;;;;;8.52;3.20;;;15.10;99.90;;;;;;4971777;28;20677;-85
2022/08/11 00:29:56;;;;;;;7.97;3.30;;;15.20;99.90;;;;;;4972669;28;20215;-87
2022/08/11 00:32:30;;;;;;;6.20;3.58;;;15.10;99.90;;;;;;4960367;28;20570;-87
2022/08/11 00:35:01;;;;;;;8.68;3.90;;;15.20;99.90;;;;;;4956502;28;20577;-86
2022/08/11 00:37:33;;;;;;;6.45;3.75;;;15.20;99.90;;;;;;4973160;28;20207;-86
2022/08/11 00:40:09;;;;;;;7.80;4.30;;;15.20;99.90;;;;;;4959977;28;20211;-87
2022/08/11 00:42:56;;;;;;;6.70;3.38;;;15.20;99.90;;;;;;4974415;28;20196;-87
2022/08/11 00:45:31;;;;;;;6.45;3.45;;;15.20;99.90;;;;;;4973447;28;20215;-86
2022/08/11 00:48:11;;;;;;;7.38;3.35;;;15.30;99.90;;;;;;4966840;28;20670;-85
2022/08/11 00:50:53;;;;;;;6.78;3.33;;;15.30;99.90;;;;;;4969606;28;20666;-84
2022/08/11 00:53:40;;;;;;;8.85;3.60;;;15.40;99.90;;;;;;4967107;28;20709;-85
2022/08/11 00:56:49;;;;;;;6.95;3.00;;;15.40;99.90;;;;;;4970095;28;20231;-85
2022/08/11 00:59:53;;;;;;;4.03;2.60;;;15.40;99.90;;;;;;4965521;28;20200;-85
2022/08/11 01:02:45;;;;;;;5.93;3.30;;;15.50;99.90;;;;;;4961756;28;20199;-85
2022/08/11 01:05:36;;;;;;;5.47;2.80;;;15.50;99.90;;;;;;4969064;28;20220;-84
2022/08/11 01:08:36;;;;;;;6.95;2.92;;;15.60;99.90;;;;;;4966282;28;20204;-85
2022/08/11 01:11:55;;;;;;;5.03;2.60;;;15.60;99.90;;;;;;4972756;28;20242;-84
2022/08/11 01:15:16;;;;;;;4.28;2.33;;;15.60;99.90;;;;;;4949329;28;20204;-86
2022/08/11 01:18:24;;;;;;;5.43;2.15;;;15.60;99.90;;;;;;4953552;28;20204;-84
2022/08/11 01:21:15;;;;;;;4.07;1.80;;;15.70;99.90;;;;;;4972237;28;20195;-84
2022/08/11 01:24:30;;;;;;;3.35;1.70;;;15.70;99.90;;;;;;4969271;28;20300;-85
2022/08/11 01:27:23;;;;;;;4.97;2.03;;;15.70;99.90;;;;;;4927981;28;20211;-84
2022/08/11 01:30:38;;;;;;;4.38;1.70;;;15.70;99.90;;;;;;4965989;28;20199;-85
2022/08/11 01:33:52;;;;;;;3.00;1.48;;;15.70;99.90;;;;;;4971412;28;20195;-85
2022/08/11 01:37:02;;;;;;;1.73;1.10;;;15.70;99.90;;;;;;4966662;28;20215;-86
2022/08/11 01:40:07;;;;;;;2.88;1.05;;;15.80;99.90;;;;;;4969986;28;20203;-85
2022/08/11 01:45:54;;;;;;;2.63;0.55;;;15.90;99.90;;;;;;4968917;28;20265;-84
2022/08/11 01:48:39;;;;;;;4.47;0.60;;;16.00;99.90;;;;;;4969484;28;20206;-85
2022/08/11 01:51:24;;;;;;;2.88;0.65;;;16.10;99.90;;;;;;4963351;28;20663;-85
2022/08/11 01:54:04;;;;;;;2.65;0.90;;;16.20;99.90;;;;;;4969940;28;20619;-85
2022/08/11 01:56:48;;;;;;;3.08;0.70;;;16.30;99.90;;;;;;4966901;28;20706;-85
2022/08/11 01:59:25;;;;;;;2.58;0.60;;;16.50;99.90;;;;;;4968811;28;20199;-87
2022/08/11 02:02:19;;;;;;;4.68;0.77;;;16.60;99.90;;;;;;4968808;28;20192;-87
2022/08/11 02:04:58;;;;;;;2.60;0.50;;;16.70;99.90;;;;;;4970494;28;20761;-83
2022/08/11 02:07:37;;;;;;;1.83;0.60;;;16.70;99.90;;;;;;4970256;28;20199;-83
2022/08/11 02:13:16;;;;;;;1.38;0.45;;;16.70;99.90;;;;;;4970432;28;20219;-83
2022/08/11 02:15:53;;;;;;;3.30;0.47;;;16.80;99.90;;;;;;4968908;28;20238;-84
2022/08/11 02:23:38;;;;;;;0.80;0.50;;;16.90;99.90;;;;;;4967590;28;20288;-85
2022/08/11 02:24:19;;;;;;;2.55;0.57;;;17.20;99.90;;;;;;4967878;28;20310;-84
2022/08/11 02:26:58;;;;;;;2.58;0.63;;;17.40;99.90;;;;;;4969388;28;20198;-83
2022/08/11 02:29:35;;;;;;;0.90;0.50;;;17.40;99.90;;;;;;4966864;28;20203;-86
2022/08/11 02:35:16;;;;;;;2.22;0.70;;;17.30;99.90;;;;;;4952975;28;20257;-85
2022/08/11 02:37:55;;;;;;;2.50;0.60;;;17.30;99.90;;;;;;4953222;28;20234;-83
2022/08/11 02:40:32;;;;;;;3.22;0.63;;;17.30;99.90;;;;;;4957334;28;20200;-85
2022/08/11 02:43:23;;;;;;;2.00;0.70;;;17.30;99.90;;;;;;4952037;28;20254;-84
2022/08/11 02:46:16;;;;;;;2.03;0.55;;;17.30;99.90;;;;;;4962554;28;20227;-85
2022/08/11 02:52:05;;;;;;;2.13;0.70;;;17.20;99.90;;;;;;4972421;28;20190;-85
2022/08/11 02:54:43;;;;;;;2.22;0.65;;;17.10;99.90;;;;;;4957683;28;20671;-86
2022/08/11 02:57:22;;;;;;;2.35;0.70;;;17.20;99.90;;;;;;4966146;28;20331;-86
2022/08/11 03:00:06;;;;;;;1.50;0.80;;;17.30;99.90;;;;;;4973011;28;20192;-86
2022/08/11 03:02:59;;;;;;;2.83;0.73;;;17.40;99.90;;;;;;4968195;28;20195;-86
2022/08/11 03:05:45;;;;;;;2.55;0.70;;;17.50;99.90;;;;;;4965313;28;20219;-87
2022/08/11 03:08:38;;;;;;;2.67;0.60;;;17.50;99.90;;;;;;4969943;28;20611;-87
2022/08/11 03:17:12;;;;;;;2.40;0.73;;;17.60;99.90;;;;;;4978428;28;20306;-84
2022/08/11 03:19:55;;;;;;;3.03;0.88;;;17.70;99.90;;;;;;4974508;28;20195;-87
2022/08/11 03:22:31;;;;;;;1.33;0.80;;;17.70;99.90;;;;;;4973483;28;20490;-87
2022/08/11 03:25:12;;;;;;;2.53;0.85;;;17.70;99.90;;;;;;4976160;28;20227;-85
2022/08/11 03:27:53;;;;;;;4.93;1.00;;;17.70;99.90;;;;;;4977533;28;20641;-87
2022/08/11 03:30:31;;;;;;;3.65;0.80;;;17.70;99.90;;;;;;4976385;28;20191;-87
2022/08/11 03:36:15;;;;;;;2.83;0.60;;;17.60;99.90;;;;;;4973179;28;20729;-87
2022/08/11 03:38:58;;;;;;;1.55;0.75;;;17.60;99.90;;;;;;4974277;28;20196;-87
2022/08/11 03:41:44;;;;;;;1.60;0.70;;;17.70;99.90;;;;;;4976373;28;20191;-85
2022/08/11 03:44:37;;;;;;;1.05;0.68;;;17.80;99.90;;;;;;4974712;28;20223;-85
2022/08/11 03:47:56;;;;;;;0.77;0.50;;;17.80;99.90;;;;;;4977371;28;20211;-86
2022/08/11 03:50:43;;;;;;;1.10;0.55;;;17.70;99.90;;;;;;4975513;28;20206;-85
2022/08/11 03:53:21;;;;;;;1.05;0.40;;;17.80;99.90;;;;;;4964139;28;20204;-86
2022/08/11 03:56:24;;;;;;;1.92;0.52;;;17.80;99.90;;;;;;4957480;29;20211;-86
2022/08/11 03:59:47;;;;;;;1.15;0.50;;;17.80;99.90;;;;;;4956412;29;20192;-86
2022/08/11 04:02:58;;;;;;;1.98;0.63;;;17.90;99.90;;;;;;4933080;29;20192;-85
2022/08/11 04:06:08;;;;;;;0.77;0.52;;;17.90;99.90;;;;;;4970154;28;20281;-87
2022/08/11 04:09:18;;;;;;;1.80;0.55;;;18.00;99.90;;;;;;4930058;28;20211;-87
2022/08/11 04:12:10;;;;;;;3.10;0.63;;;17.90;99.90;;;;;;4960473;28;20203;-86
2022/08/11 04:18:39;;;;;;;1.75;0.43;;;17.80;99.90;;;;;;4976214;28;20191;-86
2022/08/11 04:21:25;;;;;;;1.42;0.60;;;17.70;99.90;;;;;;4897041;29;20198;-87
2022/08/11 04:24:26;;;;;;;2.20;0.60;;;17.70;99.90;;;;;;4896136;29;20216;-86
2022/08/11 04:27:37;;;;;;;2.35;0.70;;;17.80;99.90;;;;;;4895898;29;20225;-87
2022/08/11 04:30:14;;;;;;;0.80;0.50;;;17.70;99.90;;;;;;4967007;28;20210;-86
2022/08/11 04:33:20;;;;;;;0.70;0.60;;;17.70;99.90;;;;;;4975404;28;20203;-87
2022/08/11 04:36:02;;;;;;;1.30;0.57;;;17.70;99.90;;;;;;4968941;28;20209;-86
2022/08/11 04:39:09;;;;;;;2.03;0.65;;;17.60;99.90;;;;;;4972135;28;20226;-86
2022/08/11 04:45:38;;;;;;;2.25;0.70;;;17.60;99.90;;;;;;4970764;28;20684;-86
2022/08/11 05:07:55;;;;;;;1.52;0.77;;;17.40;99.90;;;;;;4962358;28;20353;-86
2022/08/11 05:10:41;;;;;;;1.70;0.82;;;17.40;99.90;;;;;;4966549;28;20265;-87
2022/08/11 05:36:46;;;;;;;1.88;1.00;;;17.30;99.90;;;;;;4970873;28;20206;-83
2022/08/11 05:56:19;;;;;;;1.30;0.80;;;17.10;99.90;;;;;;4964097;28;20214;-84
2022/08/11 05:58:54;;;;;;;1.27;0.77;;;17.10;99.90;;;;;;4970799;28;20222;-86
2022/08/11 06:01:31;;;;;;;0.75;0.68;;;17.10;99.90;;;;;;4972713;28;20211;-87
2022/08/11 06:04:18;;;;;;;1.10;0.70;;;17.20;99.90;;;;;;4964628;28;20246;-87
2022/08/11 06:06:55;;;;;;;0.95;0.68;;;17.10;99.90;;;;;;4957667;28;20594;-87
2022/08/11 06:09:31;;;;;;;1.83;0.80;;;17.10;99.90;;;;;;4962068;28;20236;-86
2022/08/11 06:12:05;;;;;;;1.58;0.70;;;17.10;99.90;;;;;;4971607;28;20211;-88
2022/08/11 06:14:43;;;;;;;1.85;0.80;;;17.20;99.90;;;;;;4969640;28;20209;-87
2022/08/11 06:17:16;;;;;;;1.58;0.60;;;17.10;99.90;;;;;;4968629;28;20646;-84
2022/08/11 06:19:56;;;;;;;1.65;0.80;;;17.10;99.90;;;;;;4971149;28;20188;-87
2022/08/11 06:22:28;;;;;;;2.30;0.90;;;17.10;99.90;;;;;;4942771;28;20228;-89
2022/08/11 06:25:03;;;;;;;2.15;0.80;;;17.10;99.90;;;;;;4958197;28;20203;-84
2022/08/11 06:27:37;;;;;;;2.80;0.70;;;17.10;99.90;;;;;;4957298;28;20691;-86
2022/08/11 06:30:14;;;;;;;3.22;0.73;;;17.10;99.90;;;;;;4971408;28;20199;-87
2022/08/11 06:32:47;;;;;;;1.33;0.63;;;17.10;99.90;;;;;;4972970;28;20195;-86
2022/08/11 06:35:31;;;;;;;0.98;0.70;;;17.10;99.90;;;;;;4972974;28;20199;-86
2022/08/11 06:38:10;;;;;;;4.13;1.00;;;17.00;99.90;;;;;;4969253;28;20690;-85
2022/08/11 06:41:29;;;;;;;1.42;0.75;;;17.00;99.90;;;;;;4971717;28;20197;-84
2022/08/11 06:43:51;;;;;;;2.15;0.80;;;17.00;99.90;;;;;;4968079;28;20207;-83
2022/08/11 06:46:29;;;;;;;2.05;0.95;;;17.00;99.90;;;;;;4970050;28;20225;-84
2022/08/11 06:49:04;;;;;;;1.05;0.80;;;17.00;99.90;;;;;;4961950;28;20281;-83
2022/08/11 06:51:39;;;;;;;2.35;0.90;;;16.90;99.90;;;;;;4971406;28;20191;-84
2022/08/11 06:54:15;;;;;;;1.10;0.85;;;16.90;99.90;;;;;;4969341;28;20281;-83
2022/08/11 07:02:28;;;;;;;1.85;1.00;;;16.80;99.90;;;;;;4970015;28;20314;-83
2022/08/11 07:05:03;;;;;;;2.10;1.38;;;16.70;99.90;;;;;;4971357;28;20650;-83
2022/08/11 07:17:28;;;;;;;3.47;2.00;;;16.70;99.90;;;;;;4965734;28;20213;-81
2022/08/11 07:31:28;;;;;;;2.72;1.90;;;16.70;99.90;;;;;;4971033;28;20277;-81
2022/08/11 07:34:08;;;;;;;1.55;1.42;;;16.70;99.90;;;;;;4970648;28;20197;-82
2022/08/11 07:36:45;;;;;;;2.30;1.55;;;16.60;99.90;;;;;;4969222;28;20213;-81
2022/08/11 07:39:21;;;;;;;3.88;1.50;;;16.60;99.90;;;;;;4966069;28;20206;-81
2022/08/11 07:41:55;;;;;;;3.40;1.30;;;16.60;99.90;;;;;;4970420;28;20211;-81
2022/08/11 07:44:30;;;;;;;2.45;1.67;;;16.60;99.90;;;;;;4970837;28;20214;-85
2022/08/11 07:52:39;;;;;;;3.72;2.63;;;16.60;99.90;;;;;;4972360;28;20228;-83
2022/08/11 07:55:15;;;;;;;2.58;1.65;;;16.70;99.90;;;;;;4972735;28;20209;-82
2022/08/11 08:20:20;;;;;;;4.00;2.17;;;16.60;99.90;;;;;;4971496;28;20576;-80
2022/08/11 08:22:55;;;;;;;2.75;2.00;;;16.60;99.90;;;;;;4969526;28;20569;-80
2022/08/11 08:25:27;;;;;;;2.67;1.70;;;16.60;99.90;;;;;;4972466;28;20231;-81
2022/08/11 08:27:59;;;;;;;2.85;1.85;;;16.60;99.90;;;;;;4972236;28;20233;-84
2022/08/11 08:30:49;;;;;;;2.63;2.00;;;16.60;99.90;;;;;;4973829;28;20197;-83
2022/08/11 08:33:25;;;;;;;2.95;1.65;;;16.60;99.90;;;;;;4967496;28;20196;-81
2022/08/11 08:36:10;;;;;;;7.55;1.80;;;16.60;99.90;;;;;;4972622;28;20199;-81
2022/08/11 08:38:42;;;;;;;2.67;1.50;;;16.60;99.90;;;;;;4967505;28;20684;-81
2022/08/11 08:41:14;;;;;;;1.95;1.50;;;16.60;99.90;;;;;;4972167;28;20196;-80
2022/08/11 08:43:50;;;;;;;2.63;1.58;;;16.60;99.90;;;;;;4968298;28;20722;-80
2022/08/11 08:46:27;;;;;;;2.65;1.48;;;16.60;99.90;;;;;;4973616;28;20230;-82
2022/08/11 08:49:05;;;;;;;2.40;1.40;;;16.60;99.90;;;;;;4977577;28;20294;-78
2022/08/11 08:51:42;;;;;;;2.42;1.65;;;16.60;99.90;;;;;;4969924;28;20678;-82
2022/08/11 08:54:18;;;;;;;1.77;1.30;;;16.60;99.90;;;;;;4970505;28;20590;-81
2022/08/11 08:56:50;;;;;;;2.88;1.85;;;16.70;99.90;;;;;;4973672;28;20191;-79
2022/08/11 08:59:25;;;;;;;2.60;1.80;;;16.70;99.90;;;;;;4966877;28;20200;-78
2022/08/11 09:02:01;;;;;;;2.55;1.70;;;16.70;99.90;;;;;;4972070;28;20202;-77
2022/08/11 09:04:35;;;;;;;2.08;1.60;;;16.70;99.90;;;;;;4971370;28;20203;-77
2022/08/11 09:07:12;;;;;;;2.72;1.58;;;16.70;99.90;;;;;;4967090;28;20616;-76
2022/08/11 09:09:45;;;;;;;2.30;1.50;;;16.60;99.90;;;;;;4971483;28;20239;-78
2022/08/11 09:12:18;;;;;;;3.60;1.73;;;16.60;99.90;;;;;;4966404;28;20578;-77
2022/08/11 09:15:04;;;;;;;3.70;1.77;;;16.60;99.90;;;;;;4970193;28;20219;-77
2022/08/11 09:17:38;;;;;;;3.97;1.73;;;16.60;99.90;;;;;;4965716;28;20262;-77
2022/08/11 09:20:13;;;;;;;2.45;1.63;;;16.60;99.90;;;;;;4962702;28;20194;-78
2022/08/11 09:28:23;;;;;;;4.07;2.63;;;16.70;99.90;;;;;;4963713;28;20214;-83
2022/08/11 09:30:55;;;;;;;3.65;2.30;;;16.60;99.90;;;;;;4969827;28;20254;-78
2022/08/11 09:33:27;;;;;;;3.83;2.30;;;16.60;99.90;;;;;;4971191;28;20200;-75
2022/08/11 09:40:27;;;;;;;2.53;1.85;;;16.60;99.90;;;;;;4970729;28;20201;-78
2022/08/11 09:41:41;;;;;;;2.70;1.85;;;16.60;99.90;;;;;;4967123;28;20798;-81
2022/08/11 09:47:01;;;;;;;3.80;2.10;;;16.50;99.90;;;;;;4971402;28;20707;-80
2022/08/11 09:49:33;;;;;;;4.97;1.88;;;16.50;99.90;;;;;;4968496;28;20230;-82
2022/08/11 09:52:08;;;;;;;3.80;2.15;;;16.50;99.90;;;;;;4963855;28;20230;-78
2022/08/11 09:54:41;;;;;;;3.38;2.08;;;16.50;99.90;;;;;;4965031;28;20219;-77
2022/08/11 09:59:59;;;;;;;2.83;1.92;;;16.50;99.90;;;;;;4971335;28;20273;-78
2022/08/11 10:02:32;;;;;;;3.22;2.00;;;16.40;99.90;;;;;;4969957;28;20195;-78
2022/08/11 10:07:54;;;;;;;3.03;2.00;;;16.40;99.90;;;;;;4965181;28;20262;-77
2022/08/11 10:10:25;;;;;;;3.33;1.98;;;16.40;99.90;;;;;;4966198;28;20241;-77
2022/08/11 10:13:01;;;;;;;3.33;2.20;;;16.40;99.90;;;;;;4962187;28;20584;-76
2022/08/11 10:15:37;;;;;;;2.22;1.88;;;16.40;99.90;;;;;;4971460;28;20195;-77
2022/08/11 10:21:11;;;;;;;2.63;2.00;;;16.50;99.90;;;;;;4965779;28;20582;-76
2022/08/11 10:34:56;;;;;;;4.05;2.10;;;16.40;99.90;;;;;;4969689;28;20702;-74
2022/08/11 10:37:33;;;;;;;3.22;1.77;;;16.30;99.90;;;;;;4965079;28;20218;-76
2022/08/11 10:40:09;;;;;;;3.47;2.00;;;16.30;99.90;;;;;;4967884;28;20302;-78
2022/08/11 10:48:31;;;;;;;4.07;2.08;;;16.30;99.90;;;;;;4958211;28;20428;-81
2022/08/11 10:51:17;;;;;;;3.80;1.90;;;16.30;99.90;;;;;;4971018;28;20195;-82
2022/08/11 10:59:29;;;;;;;5.43;2.15;;;16.30;99.90;;;;;;4967636;28;20575;-84
2022/08/11 11:02:01;;;;;;;5.40;2.22;;;16.30;99.90;;;;;;4970709;28;20202;-85
2022/08/11 11:04:41;;;;;;;6.78;2.50;;;16.20;99.90;;;;;;4971042;28;20194;-83
2022/08/11 11:07:19;;;;;;;3.53;2.20;;;16.20;99.90;;;;;;4964730;28;20706;-81
2022/08/11 11:09:52;;;;;;;3.10;2.22;;;16.20;99.90;;;;;;4968087;28;20318;-88
2022/08/11 11:18:10;;;;;;;3.00;1.73;;;16.20;99.90;;;;;;4965211;28;20246;-81
2022/08/11 11:20:47;;;;;;;3.35;2.00;;;16.20;99.90;;;;;;4965675;28;20199;-81
2022/08/11 11:23:25;;;;;;;3.30;2.05;;;16.20;99.90;;;;;;4966218;28;20229;-81
2022/08/11 11:26:28;;;;;;;3.28;2.00;;;16.10;99.90;;;;;;4975072;28;20661;-82
2022/08/11 11:29:44;;;;;;;2.65;1.83;;;16.10;99.90;;;;;;4973129;28;20202;-82
2022/08/11 11:32:29;;;;;;;2.50;1.70;;;16.10;99.90;;;;;;4974160;28;20214;-82
2022/08/11 11:35:20;;;;;;;3.80;2.10;;;16.10;99.90;;;;;;4972448;28;20203;-82
2022/08/11 11:37:54;;;;;;;3.05;1.85;;;16.10;99.90;;;;;;4974118;28;20203;-84
2022/08/11 11:40:28;;;;;;;6.03;2.00;;;16.10;99.90;;;;;;4974476;28;20211;-83
2022/08/11 11:43:01;;;;;;;2.58;1.80;;;16.10;99.90;;;;;;4975029;28;20191;-82
2022/08/11 11:45:34;;;;;;;2.97;1.92;;;16.10;99.90;;;;;;4974709;28;20195;-82
2022/08/11 11:48:06;;;;;;;2.72;1.90;;;16.10;99.90;;;;;;4974502;28;20306;-82
2022/08/11 11:50:39;;;;;;;3.33;2.00;;;16.10;99.90;;;;;;4962329;28;20199;-82
2022/08/11 11:53:11;;;;;;;5.75;2.53;;;16.10;99.90;;;;;;4971757;28;20217;-81
2022/08/11 11:55:42;;;;;;;5.53;2.50;;;16.10;99.90;;;;;;4969282;28;20732;-81
2022/08/11 12:01:19;;;;;;;3.05;1.80;;;16.10;99.90;;;;;;4968223;28;20686;-83
2022/08/11 12:03:51;;;;;;;2.85;1.80;;;16.10;99.90;;;;;;4974500;28;20196;-82
2022/08/11 12:06:24;;;;;;;2.85;1.70;;;16.10;99.90;;;;;;4969396;28;20210;-81
2022/08/11 12:08:57;;;;;;;4.55;2.38;;;16.10;99.90;;;;;;4972116;28;20286;-83
2022/08/11 12:14:20;;;;;;;3.42;1.83;;;16.10;99.90;;;;;;4973251;28;20229;-82
2022/08/11 12:16:53;;;;;;;3.55;1.90;;;16.10;99.90;;;;;;4973352;28;20245;-83
2022/08/11 12:19:29;;;;;;;3.47;1.90;;;16.10;99.90;;;;;;4971687;28;20612;-83
2022/08/11 12:27:35;;;;;;;4.40;1.80;;;16.10;99.90;;;;;;4969557;28;20257;-81
2022/08/11 12:30:08;;;;;;;5.97;2.05;;;16.10;99.90;;;;;;4971699;28;20200;-82
2022/08/11 12:32:42;;;;;;;3.50;1.95;;;16.10;99.90;;;;;;4974638;28;20191;-82
2022/08/11 12:35:16;;;;;;;3.13;1.70;;;16.10;99.90;;;;;;4972886;28;20207;-82
2022/08/11 12:37:50;;;;;;;4.57;2.03;;;16.10;99.90;;;;;;4973639;28;20191;-82
2022/08/11 12:46:07;;;;;;;3.92;2.20;;;16.10;99.90;;;;;;4974115;28;20202;-82
2022/08/11 12:54:28;;;;;;;4.00;1.70;;;16.10;99.90;;;;;;4971333;28;20210;-81
2022/08/11 13:05:26;;;;;;;3.17;1.98;;;16.00;99.90;;;;;;4973707;28;20206;-81
2022/08/11 13:07:57;;;;;;;3.20;2.15;;;16.00;99.90;;;;;;4970223;28;20219;-81
2022/08/11 13:13:13;;;;;;;2.83;2.10;;;16.00;99.90;;;;;;4972290;28;20199;-81
2022/08/11 13:15:45;;;;;;;3.90;2.03;;;16.00;99.90;;;;;;4966259;28;20203;-81
2022/08/11 13:18:21;;;;;;;2.50;1.70;;;16.10;99.90;;;;;;4972846;28;20195;-81
2022/08/11 13:20:55;;;;;;;2.90;1.90;;;16.10;99.90;;;;;;4968707;28;20222;-81
2022/08/11 13:23:28;;;;;;;3.35;2.20;;;16.00;99.90;;;;;;4969911;28;20875;-81
2022/08/11 13:25:59;;;;;;;2.95;2.20;;;16.00;99.90;;;;;;4971578;28;20202;-81
2022/08/11 13:28:31;;;;;;;2.55;1.80;;;16.00;99.90;;;;;;4972996;28;20227;-81
2022/08/11 13:31:14;;;;;;;3.25;1.90;;;16.00;99.90;;;;;;4969309;28;20195;-82
2022/08/11 13:33:48;;;;;;;2.97;2.20;;;16.00;99.90;;;;;;4972007;28;20587;-80
2022/08/11 13:36:26;;;;;;;2.78;1.75;;;16.00;99.90;;;;;;4970539;28;20289;-80
2022/08/11 13:38:58;;;;;;;2.97;1.88;;;16.00;99.90;;;;;;4972777;28;20207;-84
2022/08/11 13:41:40;;;;;;;3.15;1.90;;;16.00;99.90;;;;;;4973425;28;20199;-85
2022/08/11 13:44:13;;;;;;;3.30;1.95;;;16.00;99.90;;;;;;4972715;28;20191;-82
2022/08/11 13:46:44;;;;;;;2.00;1.70;;;16.00;99.90;;;;;;4972607;28;20262;-85
2022/08/11 13:49:20;;;;;;;1.95;1.65;;;16.00;99.90;;;;;;4968570;28;20234;-85
2022/08/11 13:51:55;;;;;;;2.83;2.00;;;16.00;99.90;;;;;;4966598;28;20199;-83
2022/08/11 13:54:28;;;;;;;4.30;2.15;;;16.00;99.90;;;;;;4967869;28;20205;-84
2022/08/11 13:57:04;;;;;;;2.80;1.90;;;16.00;99.90;;;;;;4972873;28;20191;-83
2022/08/11 13:59:35;;;;;;;3.47;2.00;;;16.00;99.90;;;;;;4972876;28;20191;-82
2022/08/11 14:02:08;;;;;;;4.20;2.22;;;16.00;99.90;;;;;;4972244;28;20192;-83
2022/08/11 14:04:42;;;;;;;3.20;2.13;;;16.00;99.90;;;;;;4972504;28;20200;-82
2022/08/11 14:07:19;;;;;;;3.63;1.80;;;16.00;99.90;;;;;;4966484;28;20201;-84
2022/08/11 14:09:53;;;;;;;3.10;2.10;;;16.00;99.90;;;;;;4967607;28;20231;-83
2022/08/11 14:15:19;;;;;;;4.80;2.05;;;15.90;99.90;;;;;;4972847;28;20194;-83
2022/08/11 14:17:54;;;;;;;3.10;1.70;;;15.90;99.90;;;;;;4972737;28;20217;-84
2022/08/11 14:22:05;;;;;;;5.72;1.80;;;15.80;99.90;;;;;;4970670;28;20191;-82
2022/08/11 14:23:18;;;;;;;2.85;1.65;;;15.80;99.90;;;;;;4969147;28;20608;-82
2022/08/11 14:28:34;;;;;;;2.88;1.70;;;15.80;99.90;;;;;;4970684;28;20258;-82
2022/08/11 14:31:06;;;;;;;2.53;1.55;;;15.80;99.90;;;;;;4969879;28;20210;-83
2022/08/11 14:33:38;;;;;;;2.88;1.80;;;15.80;99.90;;;;;;4972102;28;20196;-83
2022/08/11 14:36:11;;;;;;;3.47;1.70;;;15.80;99.90;;;;;;4971951;28;20219;-84
2022/08/11 14:38:45;;;;;;;3.65;1.80;;;15.80;99.90;;;;;;4972027;28;20191;-82
2022/08/11 14:47:06;;;;;;;4.78;1.77;;;15.90;99.90;;;;;;4972032;28;20202;-82
2022/08/11 14:49:38;;;;;;;4.10;1.83;;;15.90;99.90;;;;;;4971958;28;20199;-83
2022/08/11 14:52:14;;;;;;;2.30;1.70;;;15.90;99.90;;;;;;4965296;28;20200;-83
2022/08/11 14:57:39;;;;;;;2.70;1.70;;;15.90;99.90;;;;;;4965613;28;20254;-82
2022/08/11 15:00:14;;;;;;;3.00;1.50;;;15.90;99.90;;;;;;4971736;28;20199;-82
2022/08/11 15:05:33;;;;;;;2.05;1.60;;;15.90;99.90;;;;;;4972299;28;20197;-83
2022/08/11 15:08:04;;;;;;;4.90;1.90;;;15.90;99.90;;;;;;4961792;28;20215;-83
2022/08/11 15:10:38;;;;;;;4.25;1.80;;;16.00;99.90;;;;;;4971542;28;20598;-83
2022/08/11 15:13:09;;;;;;;2.75;1.83;;;16.00;99.90;;;;;;4965521;28;20203;-83
2022/08/11 15:18:28;;;;;;;2.17;1.70;;;16.00;99.90;;;;;;4965400;28;20677;-83
2022/08/11 15:38:02;;;;;;;4.22;1.55;;;16.10;99.90;;;;;;4966469;28;20288;-83
2022/08/11 15:46:22;;;;;;;3.05;1.52;;;16.00;99.90;;;;;;4971415;28;20297;-87
2022/08/11 15:48:58;;;;;;;2.55;1.70;;;16.00;99.90;;;;;;4972447;28;20592;-85
2022/08/11 15:51:37;;;;;;;2.92;2.00;;;16.00;99.90;;;;;;4970625;28;20666;-86
2022/08/11 15:54:11;;;;;;;3.83;2.08;;;15.90;99.90;;;;;;4971531;28;20210;-85
2022/08/11 15:56:46;;;;;;;3.58;1.60;;;15.90;99.90;;;;;;4970604;28;20191;-85
2022/08/11 16:05:00;;;;;;;2.53;1.80;;;15.70;99.90;;;;;;4923410;28;20208;-85
2022/08/11 16:07:36;;;;;;;3.08;1.90;;;15.70;99.90;;;;;;4954218;28;20217;-86
2022/08/11 16:10:11;;;;;;;5.43;1.80;;;15.60;99.90;;;;;;4952875;28;20618;-86
2022/08/11 16:16:12;;;;;;;3.47;1.92;;;15.70;99.90;;;;;;4958295;28;20568;-86
2022/08/11 16:18:39;;;;;;;2.88;1.95;;;15.60;99.90;;;;;;4933207;28;20231;-83
2022/08/11 16:21:13;;;;;;;3.03;2.00;;;15.50;99.90;;;;;;4954608;28;20214;-85
2022/08/11 16:23:49;;;;;;;3.13;2.10;;;15.50;99.90;;;;;;4954051;28;20233;-84
2022/08/11 16:26:24;;;;;;;3.53;2.10;;;15.50;99.90;;;;;;4956740;28;20203;-84
2022/08/11 16:28:57;;;;;;;3.40;2.40;;;15.50;99.90;;;;;;4954008;28;20278;-85
2022/08/11 16:31:32;;;;;;;2.78;2.20;;;15.50;99.90;;;;;;4954393;28;20203;-84
2022/08/11 16:34:04;;;;;;;3.55;2.28;;;15.50;99.90;;;;;;4954039;28;20566;-84
2022/08/11 16:39:44;;;;;;;3.53;2.03;;;15.50;99.90;;;;;;4957715;28;20226;-85
2022/08/11 16:47:52;;;;;;;5.13;2.30;;;15.50;99.90;;;;;;4955225;28;20241;-84
2022/08/11 16:50:24;;;;;;;2.88;2.15;;;15.50;99.90;;;;;;4952609;28;20999;-85
2022/08/11 16:52:54;;;;;;;4.40;2.10;;;15.50;99.90;;;;;;4956128;28;20862;-85
2022/08/11 16:55:30;;;;;;;3.83;2.22;;;15.50;99.90;;;;;;4955872;28;20204;-86
2022/08/11 17:00:49;;;;;;;4.07;2.30;;;15.50;99.90;;;;;;4956723;28;20639;-84
2022/08/11 17:14:56;;;;;;;3.05;1.90;;;15.60;99.90;;;;;;4913624;29;20692;-84
2022/08/11 17:17:31;;;;;;;2.58;1.92;;;15.60;99.90;;;;;;4939584;28;20210;-85
2022/08/11 17:20:08;;;;;;;3.97;2.10;;;15.60;99.90;;;;;;4952124;28;20207;-85
2022/08/11 17:25:31;;;;;;;2.38;1.92;;;15.70;99.90;;;;;;4954565;28;20210;-85
2022/08/11 17:28:04;;;;;;;2.83;1.75;;;15.70;99.90;;;;;;4953897;28;20266;-85
2022/08/11 17:36:15;;;;;;;2.63;1.60;;;15.70;99.90;;;;;;4953754;28;20286;-85
2022/08/11 17:38:50;;;;;;;4.80;1.80;;;15.70;99.90;;;;;;4953720;28;20212;-85
2022/08/11 17:49:44;;;;;;;2.35;1.70;;;15.70;99.90;;;;;;4955847;28;20274;-85
2022/08/11 18:00:40;;;;;;;1.90;1.60;;;15.60;99.90;;;;;;4954304;28;20222;-84
2022/08/11 18:03:31;;;;;;;1.77;1.50;;;15.60;99.90;;;;;;4952437;28;20199;-84
2022/08/11 18:06:04;;;;;;;2.25;1.42;;;15.70;99.90;;;;;;4953892;28;20222;-84
